CYOW

Ottawa / Macdonald-Cartier International Airport

Ottawa, , Canada
METAR CYOW 211300Z 15009KT 15SM SCT240 24/14 A3007 RMK CI4 CC ASOCTD SLP184 DENSITY ALT 1400FT
Observed Flight Rules
Jul-21 @ 13:00 UTC (39 minutes ago) Visual Flight Rules
Wind Visibility Clouds
150° at 9 knots 15 miles
  • Scattered at 24,000' AGL
Temperatures Readings
Current 24°C / 75°F
Dewpoint 14°C / 57°F
Humidity 54%
Altimeter 30.07" Hg
Pressure 1018.4 hPa
Elevation 114
METAR CYOW 211300Z 15009KT 15SM SCT240 24/14 A3007 RMK CI4 CC ASOCTD SLP184 DENSITY ALT 1400FT
Observed Flight Rules
Jul-21 @ 13:00 UTC
(39 minutes ago)
VFR
Wind Visibility
150° at 9 knots 15 miles
Clouds
  • Scattered at 24,000' AGL
Temperature Dewpoint
24°C / 75°F 14°C / 57°F
Humidity Altimeter Pressure
54% 30.07" Hg 1018.4 hPa